createdAt,value
2019-04-07T00:01:05.266Z,22.30
2019-04-07T00:02:09.935Z,23.70
2019-04-07T00:03:14.107Z,23.37
2019-04-07T00:04:20.379Z,21.67
2019-04-07T00:05:24.583Z,22.52
2019-04-07T00:06:29.455Z,21.45
2019-04-07T00:07:33.633Z,21.80
2019-04-07T00:08:38.837Z,21.97
2019-04-07T00:09:43.660Z,20.82
2019-04-07T00:10:48.569Z,21.60
2019-04-07T00:11:55.172Z,20.82
2019-04-07T00:12:59.605Z,21.65
2019-04-07T00:14:04.504Z,21.92
2019-04-07T00:15:08.819Z,21.02
2019-04-07T00:16:13.490Z,21.47
2019-04-07T00:17:17.913Z,21.53
2019-04-07T00:18:22.411Z,22.43
2019-04-07T00:19:27.157Z,21.80
2019-04-07T00:20:32.729Z,22.00
2019-04-07T00:21:36.906Z,22.60
2019-04-07T00:22:41.250Z,22.00
2019-04-07T00:23:45.420Z,22.77
2019-04-07T00:24:49.799Z,21.75
2019-04-07T00:25:54.125Z,20.92
2019-04-07T00:26:59.090Z,22.37
2019-04-07T00:28:04.091Z,22.25
2019-04-07T00:29:08.710Z,22.10
2019-04-07T00:30:15.570Z,21.93
2019-04-07T00:31:20.529Z,21.83
2019-04-07T00:32:25.002Z,20.85
2019-04-07T00:33:29.118Z,22.17
2019-04-07T00:34:33.358Z,22.40
2019-04-07T00:35:37.790Z,21.82
2019-04-07T00:36:42.079Z,22.10
2019-04-07T00:37:46.745Z,21.05
2019-04-07T00:38:51.539Z,21.40
2019-04-07T00:39:55.833Z,21.42
2019-04-07T00:41:00.171Z,21.10
2019-04-07T00:42:05.368Z,21.27
2019-04-07T00:43:09.975Z,21.48
2019-04-07T00:44:14.671Z,21.17
2019-04-07T00:45:19.111Z,20.48
2019-04-07T00:46:24.320Z,21.62
2019-04-07T00:47:28.607Z,21.13
2019-04-07T00:48:33.319Z,20.97
2019-04-07T00:49:37.573Z,21.10
2019-04-07T00:50:41.748Z,21.37
2019-04-07T00:51:46.461Z,20.43
2019-04-07T00:52:53.277Z,20.62
2019-04-07T00:53:57.537Z,20.77
2019-04-07T00:55:02.308Z,21.17
2019-04-07T00:56:06.722Z,20.82
2019-04-07T00:57:11.018Z,20.93
2019-04-07T00:58:15.736Z,19.80
2019-04-07T00:59:19.984Z,21.97
2019-04-07T01:00:25.934Z,21.30
2019-04-07T01:01:30.555Z,19.92
2019-04-07T01:02:34.690Z,20.97
2019-04-07T01:03:39.155Z,20.48
2019-04-07T01:04:43.896Z,21.00
2019-04-07T01:05:48.681Z,19.70
2019-04-07T01:06:53.705Z,20.25
2019-04-07T01:07:58.411Z,21.42
2019-04-07T01:09:04.541Z,20.17
2019-04-07T01:10:09.672Z,21.50
2019-04-07T01:11:13.930Z,20.55
2019-04-07T01:12:19.293Z,21.20
2019-04-07T01:13:24.001Z,18.50
2019-04-07T01:14:29.056Z,19.85
2019-04-07T01:15:33.213Z,18.92
2019-04-07T01:16:37.477Z,20.55
2019-04-07T01:17:42.340Z,20.30
2019-04-07T01:18:46.860Z,19.77
2019-04-07T01:19:50.973Z,21.50
2019-04-07T01:20:55.239Z,19.05
2019-04-07T01:21:59.900Z,20.23
2019-04-07T01:23:05.532Z,20.92
2019-04-07T01:24:09.903Z,20.37
2019-04-07T01:25:14.079Z,20.03
2019-04-07T01:26:18.540Z,19.80
2019-04-07T01:27:22.811Z,19.60
2019-04-07T01:28:27.477Z,19.98
2019-04-07T01:29:32.128Z,19.85
2019-04-07T01:30:37.084Z,19.55
2019-04-07T01:31:41.323Z,19.55
2019-04-07T01:32:45.581Z,18.98
2019-04-07T01:33:49.781Z,19.95
2019-04-07T01:34:53.953Z,19.12
2019-04-07T01:35:58.314Z,18.35
2019-04-07T01:37:02.559Z,19.42
2019-04-07T01:38:07.200Z,18.95
2019-04-07T01:39:12.975Z,18.43
2019-04-07T01:40:17.706Z,19.93
2019-04-07T01:41:24.198Z,19.10
2019-04-07T01:42:45.642Z,19.57
2019-04-07T01:43:51.703Z,18.82
2019-04-07T01:45:13.810Z,19.20
2019-04-07T01:46:35.718Z,18.73
2019-04-07T01:47:47.641Z,19.27
2019-04-07T01:49:10.117Z,17.77
2019-04-07T01:50:16.623Z,18.73
2019-04-07T01:51:22.436Z,19.13
2019-04-07T01:52:28.465Z,20.32
2019-04-07T01:53:50.042Z,18.77
2019-04-07T01:55:04.888Z,19.62
2019-04-07T01:56:10.814Z,18.07
2019-04-07T01:57:33.803Z,19.87
2019-04-07T01:58:42.847Z,18.23
2019-04-07T02:00:04.736Z,18.82
2019-04-07T02:01:26.292Z,18.10
2019-04-07T02:02:47.846Z,17.90
2019-04-07T02:03:59.386Z,17.07
2019-04-07T02:05:25.419Z,18.12
2019-04-07T02:06:47.730Z,17.90
2019-04-07T02:08:02.855Z,18.27
2019-04-07T02:09:15.098Z,18.17
2019-04-07T02:10:25.146Z,18.90
2019-04-07T02:11:47.895Z,19.10
2019-04-07T02:12:56.652Z,18.00
2019-04-07T02:14:17.206Z,17.62
2019-04-07T02:16:45.301Z,17.32
2019-04-07T02:17:51.541Z,16.48
2019-04-07T02:19:09.974Z,17.50
2019-04-07T02:20:54.387Z,16.90
2019-04-07T02:22:00.394Z,17.52
2019-04-07T02:23:06.375Z,17.02
2019-04-07T02:24:13.040Z,18.00
2019-04-07T02:25:19.805Z,16.17
2019-04-07T02:26:35.090Z,16.05
2019-04-07T02:27:57.057Z,16.87
2019-04-07T02:29:19.280Z,17.42
2019-04-07T02:30:41.638Z,17.30
2019-04-07T02:31:47.552Z,16.60
2019-04-07T02:33:09.234Z,17.60
2019-04-07T02:34:21.997Z,17.03
2019-04-07T02:35:35.043Z,15.93
2019-04-07T02:36:46.955Z,17.65
2019-04-07T02:37:52.984Z,16.95
2019-04-07T02:38:58.786Z,17.35
2019-04-07T02:40:06.308Z,17.42
2019-04-07T02:41:24.467Z,17.60
2019-04-07T02:42:36.595Z,17.42
2019-04-07T02:43:45.333Z,16.90
2019-04-07T02:45:10.757Z,16.75
2019-04-07T02:46:17.123Z,17.93
2019-04-07T02:47:23.431Z,17.23
2019-04-07T02:48:48.833Z,17.92
2019-04-07T02:50:01.667Z,18.07
2019-04-07T02:51:22.931Z,17.35
2019-04-07T02:52:45.280Z,18.05
2019-04-07T02:53:55.266Z,16.73
2019-04-07T02:55:04.526Z,17.50
2019-04-07T02:56:29.861Z,15.83
2019-04-07T02:57:36.006Z,16.35
2019-04-07T02:58:47.833Z,16.60
2019-04-07T02:59:54.344Z,16.93
2019-04-07T03:01:05.912Z,16.32
2019-04-07T03:02:29.192Z,16.60
2019-04-07T03:03:35.154Z,16.73
2019-04-07T03:04:41.629Z,17.32
2019-04-07T03:05:47.706Z,17.77
2019-04-07T03:06:54.740Z,17.73
2019-04-07T03:08:07.793Z,17.67
2019-04-07T03:09:15.390Z,16.13
2019-04-07T03:10:21.643Z,17.97
2019-04-07T03:11:27.744Z,16.42
2019-04-07T03:12:37.236Z,17.75
2019-04-07T03:13:46.482Z,16.83
2019-04-07T03:15:11.138Z,17.10
2019-04-07T03:16:17.318Z,18.13
2019-04-07T03:17:29.804Z,16.20
2019-04-07T03:18:42.458Z,16.93
2019-04-07T03:19:52.037Z,17.20
2019-04-07T03:21:10.213Z,16.37
2019-04-07T03:22:25.719Z,16.83
2019-04-07T03:23:40.418Z,16.42
2019-04-07T03:24:46.277Z,16.97
2019-04-07T03:26:08.432Z,17.12
2019-04-07T03:27:14.391Z,17.13
2019-04-07T03:28:35.637Z,16.77
2019-04-07T03:29:45.391Z,16.50
2019-04-07T03:31:07.792Z,17.55
2019-04-07T03:32:31.149Z,17.27
2019-04-07T03:33:55.002Z,16.25
2019-04-07T03:35:20.097Z,16.25
2019-04-07T03:36:29.147Z,17.52
2019-04-07T03:37:38.731Z,17.15
2019-04-07T03:38:55.876Z,17.12
2019-04-07T03:40:10.365Z,16.50
2019-04-07T03:41:25.740Z,17.23
2019-04-07T03:42:47.955Z,16.55
2019-04-07T03:43:53.722Z,16.62
2019-04-07T03:45:11.843Z,16.12
2019-04-07T03:46:26.957Z,18.02
2019-04-07T03:47:47.838Z,17.90
2019-04-07T03:48:59.236Z,17.15
2019-04-07T03:50:23.119Z,17.62
2019-04-07T03:51:36.423Z,17.20
2019-04-07T03:52:42.888Z,17.48
2019-04-07T03:54:04.000Z,16.70
2019-04-07T03:55:26.105Z,16.77
2019-04-07T03:56:31.927Z,17.12
2019-04-07T03:57:37.831Z,16.42
2019-04-07T03:58:50.702Z,17.02
2019-04-07T04:00:13.056Z,17.77
2019-04-07T04:01:35.775Z,16.02
2019-04-07T04:02:44.382Z,16.00
2019-04-07T04:04:02.353Z,15.32
2019-04-07T04:05:27.356Z,15.80
2019-04-07T04:06:49.838Z,15.95
2019-04-07T04:08:06.178Z,15.50
2019-04-07T04:09:12.115Z,15.73
2019-04-07T04:10:21.202Z,16.02
2019-04-07T04:11:30.261Z,15.70
2019-04-07T04:12:49.019Z,15.00
2019-04-07T04:14:08.029Z,16.13
2019-04-07T04:15:15.089Z,15.63
2019-04-07T04:16:20.127Z,14.70
2019-04-07T04:17:25.115Z,15.88
2019-04-07T04:18:29.440Z,16.40
2019-04-07T04:19:33.728Z,16.20
2019-04-07T04:20:38.800Z,15.70
2019-04-07T04:21:44.290Z,16.35
2019-04-07T04:22:48.737Z,14.47
2019-04-07T04:23:53.080Z,16.05
2019-04-07T04:24:57.637Z,16.85
2019-04-07T04:26:02.500Z,16.05
2019-04-07T04:27:06.900Z,16.62
2019-04-07T04:28:12.037Z,16.50
2019-04-07T04:29:17.035Z,15.77
2019-04-07T04:30:21.605Z,15.07
2019-04-07T04:31:27.370Z,16.90
2019-04-07T04:32:31.620Z,15.55
2019-04-07T04:33:35.819Z,16.17
2019-04-07T04:34:41.002Z,16.52
2019-04-07T04:35:46.003Z,16.32
2019-04-07T04:36:50.373Z,16.02
2019-04-07T04:37:55.526Z,15.58
2019-04-07T04:39:00.661Z,16.37
2019-04-07T04:40:07.304Z,16.07
2019-04-07T04:41:11.707Z,16.83
2019-04-07T04:42:16.185Z,16.23
2019-04-07T04:43:20.395Z,15.33
2019-04-07T04:44:24.684Z,16.67
2019-04-07T04:45:29.590Z,16.48
2019-04-07T04:46:34.452Z,16.03
2019-04-07T04:47:39.308Z,16.75
2019-04-07T04:48:43.646Z,16.87
2019-04-07T04:49:48.368Z,16.00
2019-04-07T04:50:53.019Z,16.43
2019-04-07T04:51:58.291Z,17.62
2019-04-07T04:53:02.720Z,17.10
2019-04-07T04:54:07.272Z,17.40
2019-04-07T04:55:11.687Z,18.27
2019-04-07T04:56:16.787Z,17.13
2019-04-07T04:57:21.762Z,16.77
2019-04-07T04:58:26.924Z,17.02
2019-04-07T04:59:31.797Z,16.95
2019-04-07T05:00:36.331Z,18.07
2019-04-07T05:01:40.611Z,16.57
2019-04-07T05:02:45.627Z,15.95
2019-04-07T05:03:52.375Z,16.40
2019-04-07T05:04:57.421Z,15.85
2019-04-07T05:06:02.314Z,16.35
2019-04-07T05:07:07.779Z,16.60
2019-04-07T05:08:12.763Z,16.30
2019-04-07T05:09:17.909Z,16.73
2019-04-07T05:10:22.312Z,15.00
2019-04-07T05:11:26.792Z,17.10
2019-04-07T05:12:31.350Z,16.32
2019-04-07T05:13:35.782Z,15.88
2019-04-07T05:14:40.168Z,17.25
2019-04-07T05:15:44.595Z,16.65
2019-04-07T05:16:49.142Z,17.17
2019-04-07T05:17:53.859Z,16.17
2019-04-07T05:18:58.490Z,17.67
2019-04-07T05:20:03.360Z,15.98
2019-04-07T05:21:07.675Z,16.05
2019-04-07T05:22:12.531Z,16.90
2019-04-07T05:23:17.492Z,16.57
2019-04-07T05:24:22.290Z,17.50
2019-04-07T05:25:26.465Z,16.30
2019-04-07T05:26:31.206Z,16.65
2019-04-07T05:27:35.422Z,16.77
2019-04-07T05:28:39.645Z,16.52
2019-04-07T05:29:44.601Z,16.97
2019-04-07T05:30:48.983Z,16.35
2019-04-07T05:31:55.788Z,17.35
2019-04-07T05:32:59.916Z,17.27
2019-04-07T05:34:04.491Z,16.15
2019-04-07T05:35:08.918Z,17.17
2019-04-07T05:36:13.214Z,17.50
2019-04-07T05:37:17.677Z,16.97
2019-04-07T05:38:22.349Z,18.33
2019-04-07T05:39:27.223Z,16.73
2019-04-07T05:40:31.972Z,18.32
2019-04-07T05:41:36.333Z,17.50
2019-04-07T05:42:40.619Z,18.20
2019-04-07T05:43:44.795Z,18.23
2019-04-07T05:44:49.037Z,17.82
2019-04-07T05:45:54.313Z,17.12
2019-04-07T05:46:58.492Z,18.00
2019-04-07T05:48:03.238Z,17.52
2019-04-07T05:49:07.666Z,18.98
2019-04-07T05:50:12.211Z,18.70
2019-04-07T05:51:16.571Z,19.50
2019-04-07T05:52:20.831Z,20.63
2019-04-07T05:53:26.613Z,21.73
2019-04-07T05:54:30.807Z,21.12
2019-04-07T05:55:35.027Z,18.80
2019-04-07T05:56:39.316Z,19.32
2019-04-07T05:57:44.220Z,18.65
2019-04-07T05:58:49.418Z,19.17
2019-04-07T05:59:57.484Z,17.55
2019-04-07T06:01:01.867Z,18.62
2019-04-07T06:02:06.830Z,18.02
2019-04-07T06:03:11.236Z,17.60
2019-04-07T06:04:18.307Z,17.57
2019-04-07T06:05:21.317Z,17.87
2019-04-07T06:06:25.940Z,17.75
2019-04-07T06:07:31.548Z,17.92
2019-04-07T06:08:39.176Z,17.45
2019-04-07T06:09:42.593Z,18.98
2019-04-07T06:10:46.819Z,17.75
2019-04-07T06:11:51.101Z,18.42
2019-04-07T06:12:57.373Z,18.95
2019-04-07T06:14:01.882Z,18.25
2019-04-07T06:15:06.875Z,19.23
2019-04-07T06:16:10.973Z,19.03
2019-04-07T06:17:15.411Z,18.47
2019-04-07T06:18:20.026Z,18.67
2019-04-07T06:19:24.979Z,18.10
2019-04-07T06:20:30.311Z,17.45
2019-04-07T06:21:34.848Z,17.87
2019-04-07T06:22:39.044Z,17.12
2019-04-07T06:23:43.294Z,17.55
2019-04-07T06:24:48.000Z,18.17
2019-04-07T06:25:55.584Z,17.55
2019-04-07T06:26:58.942Z,18.10
2019-04-07T06:28:03.359Z,17.82
2019-04-07T06:29:07.640Z,18.05
2019-04-07T06:30:13.958Z,16.97
2019-04-07T06:31:18.373Z,16.60
2019-04-07T06:32:22.685Z,17.90
2019-04-07T06:33:27.520Z,17.60
2019-04-07T06:34:31.831Z,17.25
2019-04-07T06:35:36.571Z,17.87
2019-04-07T06:36:40.839Z,16.97
2019-04-07T06:37:45.400Z,17.40
2019-04-07T06:38:51.808Z,18.00
2019-04-07T06:39:55.792Z,17.60
2019-04-07T06:41:01.842Z,18.05
2019-04-07T06:42:05.974Z,17.20
2019-04-07T06:43:10.601Z,17.77
2019-04-07T06:44:18.914Z,16.53
2019-04-07T06:45:25.422Z,17.17
2019-04-07T06:46:33.890Z,17.85
2019-04-07T06:47:43.314Z,17.37
2019-04-07T06:48:55.162Z,17.53
2019-04-07T06:50:05.625Z,17.98
2019-04-07T06:51:24.037Z,18.10
2019-04-07T06:52:46.613Z,17.95
2019-04-07T06:54:02.301Z,17.80
2019-04-07T06:55:27.652Z,16.80
2019-04-07T06:56:35.354Z,16.65
2019-04-07T06:57:53.769Z,16.80
2019-04-07T06:59:02.419Z,17.32
2019-04-07T07:00:11.823Z,17.27
2019-04-07T07:01:17.638Z,16.90
2019-04-07T07:02:23.984Z,16.93
2019-04-07T07:03:39.130Z,16.07
2019-04-07T07:05:01.450Z,17.67
2019-04-07T07:06:08.450Z,16.97
2019-04-07T07:07:16.771Z,16.53
2019-04-07T07:08:24.718Z,17.67
2019-04-07T07:09:30.700Z,17.92
2019-04-07T07:10:38.992Z,16.77
2019-04-07T07:11:45.169Z,17.52
2019-04-07T07:12:53.472Z,16.50
2019-04-07T07:14:03.086Z,17.10
2019-04-07T07:15:12.158Z,17.17
2019-04-07T07:16:21.874Z,17.13
2019-04-07T07:17:42.666Z,16.32
2019-04-07T07:18:48.783Z,16.77
2019-04-07T07:20:01.377Z,15.78
2019-04-07T07:22:15.609Z,16.95
2019-04-07T07:23:28.984Z,16.67
2019-04-07T07:24:33.792Z,16.48
2019-04-07T07:25:38.029Z,16.82
2019-04-07T07:26:42.880Z,16.35
2019-04-07T07:27:47.795Z,17.27
2019-04-07T07:28:53.004Z,17.75
2019-04-07T07:29:57.783Z,17.12
2019-04-07T07:31:02.262Z,17.12
2019-04-07T07:32:06.482Z,16.57
2019-04-07T07:33:11.177Z,17.33
2019-04-07T07:34:15.679Z,17.92
2019-04-07T07:35:20.552Z,18.77
2019-04-07T07:36:26.358Z,18.02
2019-04-07T07:37:31.108Z,16.95
2019-04-07T07:38:35.908Z,17.57
2019-04-07T07:39:42.600Z,16.85
2019-04-07T07:40:47.700Z,17.55
2019-04-07T07:41:53.049Z,17.02
2019-04-07T07:42:59.234Z,18.42
2019-04-07T07:44:04.919Z,19.48
2019-04-07T07:45:12.733Z,18.65
2019-04-07T07:46:18.189Z,19.13
2019-04-07T07:47:22.603Z,19.47
2019-04-07T07:48:28.309Z,18.10
2019-04-07T07:49:36.106Z,18.52
2019-04-07T07:50:40.687Z,17.15
2019-04-07T07:51:47.522Z,17.90
2019-04-07T07:52:53.403Z,18.82
2019-04-07T07:54:00.884Z,18.05
2019-04-07T07:55:06.942Z,18.25
2019-04-07T07:56:13.547Z,18.17
2019-04-07T07:57:21.130Z,18.52
2019-04-07T07:58:27.947Z,17.30
2019-04-07T07:59:33.520Z,17.98
2019-04-07T08:00:39.830Z,16.57
2019-04-07T08:01:46.231Z,18.55
2019-04-07T08:02:50.906Z,16.90
2019-04-07T08:03:55.762Z,17.62
2019-04-07T08:05:00.646Z,18.62
2019-04-07T08:06:08.218Z,17.05
2019-04-07T08:07:13.534Z,18.07
2019-04-07T08:08:17.897Z,19.03
2019-04-07T08:09:25.210Z,18.97
2019-04-07T08:10:29.058Z,20.08
2019-04-07T08:11:34.387Z,19.17
2019-04-07T08:12:38.949Z,18.37
2019-04-07T08:13:44.950Z,18.15
2019-04-07T08:14:52.177Z,18.55
2019-04-07T08:15:57.102Z,18.77
2019-04-07T08:17:03.405Z,18.42
2019-04-07T08:18:08.389Z,19.48
2019-04-07T08:19:14.565Z,20.80
2019-04-07T08:20:19.602Z,19.13
2019-04-07T08:21:23.742Z,17.73
2019-04-07T08:22:33.841Z,19.30
2019-04-07T08:23:34.120Z,19.90
2019-04-07T08:24:38.701Z,18.30
2019-04-07T08:25:44.474Z,18.32
2019-04-07T08:26:48.858Z,17.87
2019-04-07T08:27:53.210Z,18.87
2019-04-07T08:28:57.395Z,18.05
2019-04-07T08:30:01.712Z,18.12
2019-04-07T08:31:06.598Z,19.12
2019-04-07T08:32:11.087Z,17.13
2019-04-07T08:33:15.880Z,18.10
2019-04-07T08:34:20.344Z,18.32
2019-04-07T08:35:24.686Z,18.37
2019-04-07T08:36:29.135Z,17.15
2019-04-07T08:37:34.088Z,17.37
2019-04-07T08:38:38.453Z,18.05
2019-04-07T08:39:43.208Z,19.05
2019-04-07T08:40:47.892Z,18.17
2019-04-07T08:41:52.952Z,17.35
2019-04-07T08:42:57.328Z,17.48
2019-04-07T08:44:01.745Z,17.67
2019-04-07T08:45:06.300Z,17.05
2019-04-07T08:46:11.021Z,16.73
2019-04-07T08:47:20.813Z,17.67
2019-04-07T08:48:21.675Z,17.93
2019-04-07T08:49:25.863Z,16.97
2019-04-07T08:50:30.975Z,17.05
2019-04-07T08:51:35.171Z,16.95
2019-04-07T08:52:42.690Z,17.50
2019-04-07T08:53:46.374Z,17.37
2019-04-07T08:54:52.418Z,17.15
2019-04-07T08:55:56.977Z,17.48
2019-04-07T08:57:01.255Z,18.32
2019-04-07T08:58:06.593Z,17.60
2019-04-07T08:59:13.886Z,17.10
2019-04-07T09:00:21.396Z,17.15
2019-04-07T09:01:28.703Z,17.00
2019-04-07T09:02:32.222Z,17.07
2019-04-07T09:03:36.529Z,17.30
2019-04-07T09:04:41.339Z,15.83
2019-04-07T09:05:45.563Z,16.80
2019-04-07T09:06:50.291Z,17.20
2019-04-07T09:07:55.044Z,16.87
2019-04-07T09:09:00.384Z,18.10
2019-04-07T09:10:07.268Z,16.65
2019-04-07T09:11:20.039Z,15.80
2019-04-07T09:12:22.891Z,15.80
2019-04-07T09:13:31.634Z,16.48
2019-04-07T09:14:37.835Z,16.30
2019-04-07T09:15:59.996Z,16.07
2019-04-07T09:17:12.663Z,14.94
2019-04-07T09:18:33.652Z,16.40
2019-04-07T09:19:42.004Z,15.60
2019-04-07T09:20:49.318Z,16.40
2019-04-07T09:21:57.943Z,16.70
2019-04-07T09:23:19.043Z,16.93
2019-04-07T09:24:30.615Z,15.32
2019-04-07T09:25:35.831Z,17.40
2019-04-07T09:26:48.554Z,17.20
2019-04-07T09:27:55.021Z,16.60
2019-04-07T09:29:05.175Z,15.85
2019-04-07T09:30:11.281Z,15.37
2019-04-07T09:31:19.861Z,16.30
2019-04-07T09:32:28.981Z,16.12
2019-04-07T09:33:40.687Z,15.50
2019-04-07T09:34:54.027Z,15.03
2019-04-07T09:36:06.941Z,15.98
2019-04-07T09:37:28.852Z,16.52
2019-04-07T09:38:43.402Z,15.63
2019-04-07T09:40:01.031Z,16.97
2019-04-07T09:41:12.094Z,16.07
2019-04-07T09:42:33.689Z,14.90
2019-04-07T09:43:55.119Z,14.78
2019-04-07T09:45:07.422Z,14.73
2019-04-07T09:46:18.012Z,14.93
2019-04-07T09:47:32.490Z,15.93
2019-04-07T09:48:40.243Z,15.20
2019-04-07T09:50:02.877Z,14.63
2019-04-07T09:51:15.380Z,14.68
2019-04-07T09:52:33.918Z,14.00
2019-04-07T09:53:50.739Z,13.73
2019-04-07T09:54:57.337Z,14.45
2019-04-07T09:56:03.789Z,13.83
2019-04-07T09:57:23.553Z,13.37
2019-04-07T09:58:33.167Z,13.00
2019-04-07T09:59:50.781Z,12.63
2019-04-07T10:01:08.004Z,12.55
2019-04-07T10:02:18.514Z,12.70
2019-04-07T10:04:39.680Z,12.07
2019-04-07T10:05:57.943Z,12.15
2019-04-07T10:07:09.467Z,13.22
2019-04-07T10:08:30.310Z,13.13
2019-04-07T10:10:04.579Z,12.95
2019-04-07T10:11:05.316Z,11.85
2019-04-07T10:12:17.267Z,13.03
2019-04-07T10:13:26.113Z,12.63
2019-04-07T10:14:51.280Z,11.95
2019-04-07T10:16:13.218Z,12.53
2019-04-07T10:17:28.963Z,12.50
2019-04-07T10:18:38.339Z,13.03
2019-04-07T10:19:44.659Z,12.10
2019-04-07T10:21:08.825Z,12.15
2019-04-07T10:22:21.185Z,12.27
2019-04-07T10:23:27.146Z,13.18
2019-04-07T10:24:39.404Z,12.98
2019-04-07T10:26:00.467Z,13.62
2019-04-07T10:27:10.786Z,13.65
2019-04-07T10:28:19.454Z,13.07
2019-04-07T10:29:28.542Z,13.78
2019-04-07T10:30:49.201Z,13.10
2019-04-07T10:32:11.427Z,13.40
2019-04-07T10:33:31.845Z,13.27
2019-04-07T10:34:40.793Z,13.58
2019-04-07T10:36:02.963Z,13.18
2019-04-07T10:37:12.266Z,13.05
2019-04-07T10:38:30.336Z,12.53
2019-04-07T10:39:42.173Z,11.43
2019-04-07T10:40:57.567Z,12.25
2019-04-07T10:42:15.057Z,12.50
2019-04-07T10:43:24.028Z,12.17
2019-04-07T10:44:42.336Z,11.75
2019-04-07T10:45:48.334Z,11.25
2019-04-07T10:46:56.816Z,12.07
2019-04-07T10:48:14.513Z,11.48
2019-04-07T10:49:27.330Z,11.10
2019-04-07T10:50:45.137Z,11.95
2019-04-07T10:52:06.699Z,11.70
2019-04-07T10:53:18.043Z,12.10
2019-04-07T10:54:27.056Z,11.83
2019-04-07T10:55:49.507Z,11.25
2019-04-07T10:56:56.311Z,11.65
2019-04-07T10:58:20.853Z,11.78
2019-04-07T10:59:39.046Z,12.43
2019-04-07T11:00:48.799Z,12.43
2019-04-07T11:02:10.277Z,13.28
2019-04-07T11:03:19.575Z,11.53
2019-04-07T11:04:41.690Z,11.47
2019-04-07T11:05:53.713Z,12.18
2019-04-07T11:07:17.447Z,12.07
2019-04-07T11:08:37.774Z,12.00
2019-04-07T11:09:43.961Z,12.85
2019-04-07T11:11:06.257Z,12.95
2019-04-07T11:12:18.183Z,13.80
2019-04-07T11:13:24.000Z,12.50
2019-04-07T11:14:33.084Z,13.27
2019-04-07T11:15:54.146Z,13.00
2019-04-07T11:17:06.425Z,12.88
2019-04-07T11:18:12.416Z,12.63
2019-04-07T11:19:36.147Z,12.77
2019-04-07T11:20:54.433Z,13.55
2019-04-07T11:22:03.026Z,12.37
2019-04-07T11:23:08.845Z,12.30
2019-04-07T11:24:31.594Z,11.17
2019-04-07T11:25:40.353Z,10.80
2019-04-07T11:27:01.747Z,12.60
2019-04-07T11:28:17.750Z,11.48
2019-04-07T11:29:23.993Z,11.10
2019-04-07T11:30:29.767Z,13.45
2019-04-07T11:31:48.371Z,12.58
2019-04-07T11:33:09.505Z,11.18
2019-04-07T11:34:15.978Z,10.87
2019-04-07T11:35:22.221Z,9.73
2019-04-07T11:36:28.790Z,10.03
2019-04-07T11:37:53.939Z,10.30
2019-04-07T11:39:08.993Z,9.88
2019-04-07T11:40:41.971Z,10.53
2019-04-07T11:41:57.416Z,9.88
2019-04-07T11:43:03.382Z,9.90
2019-04-07T11:44:11.901Z,8.90
2019-04-07T11:45:20.780Z,9.47
2019-04-07T11:46:37.053Z,9.60
2019-04-07T11:47:45.987Z,9.78
2019-04-07T11:48:52.063Z,10.28
2019-04-07T11:50:01.420Z,9.93
2019-04-07T11:51:09.629Z,10.55
2019-04-07T11:52:14.851Z,7.73
2019-04-07T11:53:27.450Z,9.27
2019-04-07T11:54:33.884Z,9.30
2019-04-07T11:55:46.474Z,9.05
2019-04-07T11:57:08.694Z,8.23
2019-04-07T11:58:22.289Z,7.73
2019-04-07T11:59:23.899Z,7.80
2019-04-07T12:00:30.225Z,7.22
2019-04-07T12:01:39.452Z,7.50
2019-04-07T12:02:45.551Z,8.30
2019-04-07T12:04:09.313Z,7.17
2019-04-07T12:05:27.332Z,6.63
2019-04-07T12:06:33.278Z,7.97
2019-04-07T12:07:57.187Z,7.22
2019-04-07T12:09:18.176Z,7.20
2019-04-07T12:10:30.117Z,6.43
2019-04-07T12:11:52.625Z,7.37
2019-04-07T12:13:04.796Z,6.62
2019-04-07T12:14:17.833Z,6.00
2019-04-07T12:15:28.662Z,6.00
2019-04-07T12:16:49.301Z,6.60
2019-04-07T12:17:55.660Z,6.40
2019-04-07T12:19:08.748Z,6.80
2019-04-07T12:20:33.788Z,8.00
2019-04-07T12:21:51.219Z,6.33
2019-04-07T12:23:09.327Z,7.35
2019-04-07T12:24:23.870Z,6.67
2019-04-07T12:25:33.369Z,6.72
2019-04-07T12:26:56.614Z,6.55
2019-04-07T12:28:05.498Z,6.65
2019-04-07T12:29:20.755Z,7.05
2019-04-07T12:30:28.453Z,7.80
2019-04-07T12:32:57.637Z,7.30
2019-04-07T12:34:09.453Z,7.58
2019-04-07T12:36:41.990Z,8.58
2019-04-07T12:37:54.189Z,7.85
2019-04-07T12:39:02.893Z,7.55
2019-04-07T12:40:20.796Z,6.70
2019-04-07T12:41:31.830Z,7.30
2019-04-07T12:42:54.584Z,6.22
2019-04-07T12:44:19.113Z,7.20
2019-04-07T12:45:35.799Z,7.67
2019-04-07T12:46:41.841Z,6.85
2019-04-07T12:47:47.598Z,6.90
2019-04-07T12:49:05.392Z,6.85
2019-04-07T12:50:21.971Z,6.72
2019-04-07T12:51:44.160Z,7.83
2019-04-07T12:53:06.881Z,6.70
2019-04-07T12:54:25.443Z,6.60
2019-04-07T12:55:37.236Z,6.62
2019-04-07T12:56:45.645Z,6.37
2019-04-07T12:57:56.578Z,6.05
2019-04-07T12:59:02.335Z,6.65
2019-04-07T13:00:09.094Z,6.58
2019-04-07T13:01:32.823Z,6.03
2019-04-07T13:02:41.420Z,5.53
2019-04-07T13:03:55.942Z,6.55
2019-04-07T13:05:03.811Z,6.08
2019-04-07T13:06:25.478Z,6.58
2019-04-07T13:07:37.901Z,6.20
2019-04-07T13:09:01.279Z,7.12
2019-04-07T13:10:11.910Z,7.40
2019-04-07T13:11:33.992Z,6.87
2019-04-07T13:12:37.629Z,6.87
2019-04-07T13:13:43.899Z,6.93
2019-04-07T13:14:52.475Z,8.07
2019-04-07T13:16:01.515Z,8.20
2019-04-07T13:17:13.775Z,7.53
2019-04-07T13:18:31.406Z,8.03
2019-04-07T13:19:41.830Z,7.58
2019-04-07T13:20:53.311Z,6.72
2019-04-07T13:22:08.127Z,6.92
2019-04-07T13:23:13.965Z,7.70
2019-04-07T13:24:33.677Z,7.47
2019-04-07T13:25:55.018Z,6.40
2019-04-07T13:27:03.107Z,7.10
2019-04-07T13:28:10.962Z,7.20
2019-04-07T13:29:19.449Z,8.03
2019-04-07T13:30:40.957Z,7.65
2019-04-07T13:31:50.303Z,7.93
2019-04-07T13:33:01.653Z,7.17
2019-04-07T13:35:42.100Z,6.65
2019-04-07T13:36:52.966Z,6.58
2019-04-07T13:38:01.542Z,6.60
2019-04-07T13:39:09.935Z,6.80
2019-04-07T13:40:27.909Z,7.73
2019-04-07T13:41:47.563Z,8.20
2019-04-07T13:43:08.221Z,7.27
2019-04-07T13:44:26.094Z,7.00
2019-04-07T13:45:37.862Z,8.30
2019-04-07T13:46:44.448Z,8.40
2019-04-07T13:47:50.302Z,8.08
2019-04-07T13:49:00.117Z,7.62
2019-04-07T13:50:04.126Z,7.72
2019-04-07T13:51:18.893Z,6.67
2019-04-07T13:52:34.335Z,7.15
2019-04-07T13:53:58.031Z,7.30
2019-04-07T13:55:05.885Z,7.50
2019-04-07T13:56:27.504Z,7.47
2019-04-07T13:57:50.406Z,6.78
2019-04-07T13:59:10.904Z,6.60
2019-04-07T14:00:21.756Z,6.80
2019-04-07T14:01:43.961Z,6.67
2019-04-07T14:02:50.060Z,6.72
2019-04-07T14:04:14.517Z,7.05
2019-04-07T14:05:39.112Z,6.57
2019-04-07T14:06:45.913Z,7.00
2019-04-07T14:08:08.108Z,6.60
2019-04-07T14:09:22.534Z,6.10
2019-04-07T14:10:46.165Z,5.08
2019-04-07T14:12:10.065Z,6.33
2019-04-07T14:13:14.781Z,7.60
2019-04-07T14:14:29.043Z,6.10
2019-04-07T14:15:44.273Z,6.85
2019-04-07T14:16:50.920Z,6.78
2019-04-07T14:18:14.381Z,6.62
2019-04-07T14:19:27.739Z,6.30
2019-04-07T14:20:42.498Z,6.53
2019-04-07T14:21:51.155Z,5.63
2019-04-07T14:22:57.720Z,6.40
2019-04-07T14:24:08.184Z,6.80
2019-04-07T14:25:26.762Z,6.70
2019-04-07T14:26:44.378Z,6.65
2019-04-07T14:27:59.329Z,7.33
2019-04-07T14:29:17.202Z,6.83
2019-04-07T14:30:39.701Z,6.47
2019-04-07T14:32:02.083Z,6.67
2019-04-07T14:33:15.476Z,6.72
2019-04-07T14:34:30.392Z,6.40
2019-04-07T14:35:43.100Z,6.17
2019-04-07T14:36:58.972Z,6.20
2019-04-07T14:38:21.304Z,6.17
2019-04-07T14:39:45.622Z,6.72
2019-04-07T14:41:03.851Z,6.25
2019-04-07T14:42:13.100Z,6.25
2019-04-07T14:43:28.068Z,8.10
2019-04-07T14:44:50.027Z,5.70
2019-04-07T14:45:59.150Z,6.12
2019-04-07T14:47:04.950Z,5.30
2019-04-07T14:48:10.953Z,5.67
2019-04-07T14:49:19.570Z,5.53
2019-04-07T14:50:32.085Z,5.10
2019-04-07T14:51:43.885Z,5.17
2019-04-07T14:52:55.590Z,5.80
2019-04-07T14:54:10.011Z,6.20
2019-04-07T14:55:22.618Z,5.30
2019-04-07T14:56:36.797Z,6.00
2019-04-07T14:57:59.070Z,5.65
2019-04-07T14:59:24.655Z,6.00
2019-04-07T15:00:45.527Z,5.97
2019-04-07T15:01:51.399Z,5.53
2019-04-07T15:02:56.563Z,6.12
2019-04-07T15:04:01.129Z,5.70
2019-04-07T15:05:07.586Z,5.25
2019-04-07T15:06:12.051Z,5.57
2019-04-07T15:07:21.532Z,5.80
2019-04-07T15:08:44.342Z,5.22
2019-04-07T15:10:09.575Z,5.22
2019-04-07T15:11:17.875Z,5.33
2019-04-07T15:12:30.225Z,4.80
2019-04-07T15:13:35.279Z,5.12
2019-04-07T15:14:39.541Z,5.78
2019-04-07T15:15:44.285Z,5.08
2019-04-07T15:16:50.228Z,5.60